North Bay, Canada
Current Conditions -  °F | °C
As of 1:00 PM on Monday 26 Jan 2015 (Local Time) from CYYB Reporting Station
Broken Clouds Broken Clouds  
Wind Chill: -7°   Ceiling: 24000
Heat Index:   Visibility: 15mi
Dew Point:   Wind: 9mph
Humidity: 72%   Direction: 100°E
Pressure: 30.02"   Gusts: NA
Location:  46.31°N, 79.46°W
Report Text: CYYB 261800Z 10008KT 15SM BKN240 M14/M18 A3002 RMK CI7 SLP203
Loading
Personal Weather Stations






























Interactive Weather Map New forecast layout! Learn more

10-Day Weather Forecast

Advertisements
Track Severe Weather on mobile